Time;durP1;ratioP1;P1;durP2;ratioP2;P2;SDS_P1;SDS_P2;PMS_P1;PMS_P2;Temp;Humidity;BMP_temperature;BMP_pressure;BME280_temperature;BME280_humidity;BME280_pressure;Samples;Min_cycle;Max_cycle;Signal;HPM_P1;HPM_P2
2023/09/07 00:01:21;;;;;;;5.45;2.80;;;20.00;99.90;;;;;;4994614;28;20096;-43
2023/09/07 00:03:46;;;;;;;4.85;2.50;;;20.00;99.90;;;;;;4976745;28;20089;-44
2023/09/07 00:06:12;;;;;;;6.35;2.58;;;20.00;99.90;;;;;;4994672;28;20093;-43
2023/09/07 00:08:38;;;;;;;5.05;2.60;;;20.00;99.90;;;;;;4994732;28;20042;-44
2023/09/07 00:11:07;;;;;;;5.10;2.92;;;19.90;99.90;;;;;;4977538;28;20054;-44
2023/09/07 00:13:33;;;;;;;4.28;2.40;;;20.00;99.90;;;;;;4994420;28;20049;-43
2023/09/07 00:16:00;;;;;;;;;;;20.00;99.90;;;;;;4994891;28;20099;-43
2023/09/07 00:18:26;;;;;;;5.72;2.97;;;19.90;99.90;;;;;;4994513;28;19922;-43
2023/09/07 00:20:52;;;;;;;6.35;3.15;;;19.90;99.90;;;;;;4977446;28;20062;-44
2023/09/07 00:23:19;;;;;;;4.72;2.90;;;19.90;99.90;;;;;;4994437;28;20054;-43
2023/09/07 00:25:45;;;;;;;5.97;3.28;;;19.90;99.90;;;;;;4994123;28;20483;-44
2023/09/07 00:28:11;;;;;;;5.22;2.90;;;19.90;99.90;;;;;;4994548;28;20046;-43
2023/09/07 00:30:37;;;;;;;4.72;2.42;;;19.90;99.90;;;;;;4994301;28;20514;-43
2023/09/07 00:33:03;;;;;;;4.43;2.65;;;19.90;99.90;;;;;;4994339;28;20050;-43
2023/09/07 00:35:28;;;;;;;5.53;2.83;;;19.90;99.90;;;;;;4994323;28;20042;-43
2023/09/07 00:37:54;;;;;;;6.68;3.30;;;19.90;99.90;;;;;;4977466;28;20042;-43
2023/09/07 00:40:20;;;;;;;5.22;2.70;;;19.90;99.90;;;;;;4994120;28;20411;-43
2023/09/07 00:42:46;;;;;;;;;;;19.90;99.90;;;;;;5009867;28;20085;-44
2023/09/07 00:45:13;;;;;;;4.20;2.42;;;19.90;99.90;;;;;;4994064;28;20011;-43
2023/09/07 00:47:38;;;;;;;4.85;2.72;;;19.90;99.90;;;;;;4994185;28;20065;-43
2023/09/07 00:50:07;;;;;;;4.88;2.75;;;19.90;99.90;;;;;;4994142;28;20046;-43
2023/09/07 00:52:34;;;;;;;5.82;2.60;;;19.90;99.90;;;;;;4994032;28;20050;-43
2023/09/07 00:55:02;;;;;;;4.70;2.63;;;19.90;99.90;;;;;;4994172;28;20046;-43
2023/09/07 00:57:27;;;;;;;4.75;2.63;;;19.80;99.90;;;;;;4994118;28;20042;-43
2023/09/07 00:59:54;;;;;;;4.25;2.63;;;19.80;99.90;;;;;;4994084;28;20529;-43
2023/09/07 01:02:20;;;;;;;4.28;2.30;;;19.70;99.90;;;;;;4994069;28;20495;-43
2023/09/07 01:04:45;;;;;;;5.10;2.63;;;19.70;99.90;;;;;;4994102;28;20081;-44
2023/09/07 01:07:18;;;;;;;5.07;2.40;;;19.60;99.90;;;;;;4993872;28;20495;-43
2023/09/07 01:09:46;;;;;;;4.55;2.67;;;19.60;99.90;;;;;;4993858;28;20415;-44
2023/09/07 01:12:16;;;;;;;4.95;2.47;;;19.50;99.90;;;;;;4993693;28;20533;-43
2023/09/07 01:14:42;;;;;;;4.65;2.70;;;19.50;99.90;;;;;;4994101;28;20518;-43
2023/09/07 01:17:09;;;;;;;5.45;2.70;;;19.50;99.90;;;;;;4980790;28;20515;-43
2023/09/07 01:19:35;;;;;;;5.97;2.90;;;19.50;99.90;;;;;;4997743;28;20047;-43
2023/09/07 01:22:01;;;;;;;4.82;2.75;;;19.50;99.90;;;;;;4997847;28;20050;-43
2023/09/07 01:24:29;;;;;;;5.93;3.10;;;19.50;99.90;;;;;;4997714;28;20093;-43
2023/09/07 01:27:00;;;;;;;5.85;3.00;;;19.40;99.90;;;;;;4997372;28;20054;-43
2023/09/07 01:29:29;;;;;;;5.75;3.10;;;19.40;99.90;;;;;;4997677;28;20125;-43
2023/09/07 01:31:55;;;;;;;5.47;3.20;;;19.40;99.90;;;;;;4997664;28;20058;-43
2023/09/07 01:34:20;;;;;;;;;;;19.30;99.90;;;;;;4980765;28;20057;-43
2023/09/07 01:36:46;;;;;;;4.70;2.80;;;19.30;99.90;;;;;;4997346;28;19921;-43
2023/09/07 01:39:12;;;;;;;6.47;3.10;;;19.30;99.90;;;;;;4997469;28;20085;-43
2023/09/07 01:41:37;;;;;;;5.93;3.40;;;19.20;99.90;;;;;;4997887;28;20054;-43
2023/09/07 01:44:03;;;;;;;5.00;3.20;;;19.20;99.90;;;;;;4980817;28;20057;-43
2023/09/07 01:46:29;;;;;;;5.53;3.28;;;19.20;99.90;;;;;;4997004;28;20042;-43
2023/09/07 01:48:55;;;;;;;6.00;2.92;;;19.20;99.90;;;;;;4997270;28;20479;-43
2023/09/07 01:51:20;;;;;;;5.78;3.45;;;19.20;99.90;;;;;;4979911;28;20038;-43
2023/09/07 01:53:49;;;;;;;4.97;2.80;;;19.20;99.90;;;;;;4997236;28;20098;-44
2023/09/07 01:56:18;;;;;;;5.88;3.08;;;19.20;99.90;;;;;;4979807;28;20108;-43
2023/09/07 01:58:44;;;;;;;6.28;3.30;;;19.20;99.90;;;;;;4997104;28;20137;-43
2023/09/07 02:01:26;;;;;;;4.55;2.60;;;19.20;99.90;;;;;;4997082;28;20077;-43
2023/09/07 02:03:53;;;;;;;5.32;3.25;;;19.10;99.90;;;;;;4979789;28;20153;-43
2023/09/07 02:06:18;;;;;;;;;;;19.10;99.90;;;;;;4997140;28;20046;-43
2023/09/07 02:08:44;;;;;;;6.80;3.78;;;19.10;99.90;;;;;;4996582;28;19980;-43
2023/09/07 02:11:10;;;;;;;6.22;2.90;;;19.10;99.90;;;;;;4996651;28;20046;-43
2023/09/07 02:13:36;;;;;;;5.72;2.97;;;19.00;99.90;;;;;;5011950;28;20491;-44
2023/09/07 02:16:05;;;;;;;6.25;3.33;;;19.00;99.90;;;;;;5011832;28;20129;-43
2023/09/07 02:18:32;;;;;;;5.50;3.40;;;19.00;99.90;;;;;;4979172;28;20046;-43
2023/09/07 02:21:05;;;;;;;4.63;3.10;;;19.00;99.90;;;;;;4996637;28;20046;-43
2023/09/07 02:23:32;;;;;;;5.22;3.28;;;19.00;99.90;;;;;;4996592;28;20053;-42
2023/09/07 02:25:58;;;;;;;5.68;3.00;;;19.00;99.90;;;;;;4996536;28;20501;-44
2023/09/07 02:28:24;;;;;;;5.38;3.15;;;19.10;99.90;;;;;;4995855;28;20491;-43
2023/09/07 02:30:51;;;;;;;4.90;3.03;;;19.00;99.90;;;;;;4996541;28;20085;-43
2023/09/07 02:33:17;;;;;;;5.63;3.22;;;19.00;99.90;;;;;;4996275;28;20093;-43
2023/09/07 02:35:42;;;;;;;4.88;3.10;;;19.00;99.90;;;;;;4996321;28;20046;-43
2023/09/07 02:38:08;;;;;;;5.75;3.78;;;19.00;99.90;;;;;;4996609;28;20042;-43
2023/09/07 02:40:42;;;;;;;6.35;3.33;;;19.00;99.90;;;;;;4996711;28;20049;-43
2023/09/07 02:43:07;;;;;;;6.43;3.70;;;19.00;99.90;;;;;;4996283;28;20126;-43
2023/09/07 02:45:33;;;;;;;5.53;3.38;;;18.90;99.90;;;;;;4996271;28;20050;-43
2023/09/07 02:47:59;;;;;;;5.28;3.22;;;18.90;99.90;;;;;;5011142;28;20061;-43
2023/09/07 02:50:24;;;;;;;5.70;3.67;;;18.90;99.90;;;;;;4995969;28;20046;-43
2023/09/07 02:52:50;;;;;;;6.65;3.63;;;18.90;99.90;;;;;;4996573;28;20042;-43
2023/09/07 02:55:16;;;;;;;7.05;3.25;;;18.90;99.90;;;;;;4996423;28;20093;-43
2023/09/07 02:57:42;;;;;;;6.15;3.55;;;18.80;99.90;;;;;;4996128;28;20129;-43
2023/09/07 03:00:09;;;;;;;6.20;3.65;;;18.80;99.90;;;;;;4995792;28;20125;-44
2023/09/07 03:02:35;;;;;;;5.20;3.17;;;18.80;99.90;;;;;;4995718;28;20058;-43
2023/09/07 03:05:01;;;;;;;6.43;3.35;;;18.80;99.90;;;;;;4995689;28;20054;-43
2023/09/07 03:07:32;;;;;;;5.82;3.60;;;18.80;99.90;;;;;;4995709;28;20042;-43
2023/09/07 03:09:58;;;;;;;5.63;3.38;;;18.70;99.90;;;;;;4978820;28;20558;-43
2023/09/07 03:12:23;;;;;;;6.88;3.83;;;18.60;99.90;;;;;;4995701;28;20142;-43
2023/09/07 03:14:50;;;;;;;4.95;3.05;;;18.60;99.90;;;;;;4995531;28;20046;-43
2023/09/07 03:17:17;;;;;;;5.85;3.63;;;18.60;99.90;;;;;;4995576;28;20149;-44
2023/09/07 03:19:43;;;;;;;7.35;3.58;;;18.60;99.90;;;;;;4995522;28;20129;-42
2023/09/07 03:22:09;;;;;;;5.70;3.65;;;18.60;99.90;;;;;;4978543;28;20082;-43
2023/09/07 03:24:35;;;;;;;;;;;18.50;99.90;;;;;;4995843;28;20050;-43
2023/09/07 03:27:00;;;;;;;5.85;3.60;;;18.50;99.90;;;;;;4995249;28;19928;-43
2023/09/07 03:29:26;;;;;;;5.50;3.28;;;18.40;99.90;;;;;;4995426;28;20136;-43
2023/09/07 03:31:52;;;;;;;5.97;3.50;;;18.40;99.90;;;;;;5010379;28;20054;-43
2023/09/07 03:34:18;;;;;;;5.35;3.47;;;18.40;99.90;;;;;;4995174;28;20057;-44
2023/09/07 03:36:45;;;;;;;6.82;3.95;;;18.40;99.90;;;;;;4995345;28;20122;-43
2023/09/07 03:39:10;;;;;;;6.07;3.40;;;18.40;99.90;;;;;;4994307;28;20125;-43
2023/09/07 03:41:36;;;;;;;6.88;4.07;;;18.40;99.90;;;;;;4962103;28;20108;-43
2023/09/07 03:44:02;;;;;;;5.50;3.38;;;18.40;99.90;;;;;;4995210;28;20559;-42
2023/09/07 03:46:28;;;;;;;6.40;3.95;;;18.30;99.90;;;;;;4977369;28;20050;-44
2023/09/07 03:48:53;;;;;;;5.45;3.40;;;18.30;99.90;;;;;;4995031;28;20055;-43
2023/09/07 03:51:19;;;;;;;5.68;3.33;;;18.30;99.90;;;;;;4995085;28;20518;-43
2023/09/07 03:53:45;;;;;;;5.80;3.88;;;18.20;99.90;;;;;;4977669;28;20406;-43
2023/09/07 03:56:11;;;;;;;;;;;18.20;99.90;;;;;;4995334;28;20539;-43
2023/09/07 03:58:37;;;;;;;7.53;3.95;;;18.10;99.90;;;;;;4994869;28;19975;-43
2023/09/07 04:01:03;;;;;;;6.28;3.83;;;18.10;99.90;;;;;;4994849;28;20403;-43
2023/09/07 04:03:28;;;;;;;6.75;4.07;;;18.20;99.90;;;;;;4994882;28;20460;-43
2023/09/07 04:05:54;;;;;;;6.18;3.60;;;18.10;99.90;;;;;;4994656;28;20050;-43
2023/09/07 04:08:20;;;;;;;7.00;3.72;;;18.10;99.90;;;;;;4994760;28;20072;-43
2023/09/07 04:10:45;;;;;;;6.53;3.60;;;18.00;99.90;;;;;;4994806;28;20073;-43
2023/09/07 04:13:11;;;;;;;6.13;3.50;;;18.00;99.90;;;;;;4994506;28;20046;-43
2023/09/07 04:15:46;;;;;;;6.30;3.67;;;18.00;99.90;;;;;;4994500;28;20042;-43
2023/09/07 04:18:15;;;;;;;6.18;3.75;;;18.00;99.90;;;;;;4977524;28;20081;-43
2023/09/07 04:20:40;;;;;;;5.45;3.22;;;17.90;99.90;;;;;;4994481;28;20190;-43
2023/09/07 04:23:06;;;;;;;7.60;3.95;;;18.00;99.90;;;;;;4994727;28;20090;-43
2023/09/07 04:25:32;;;;;;;5.85;3.60;;;17.90;99.90;;;;;;4994286;28;20495;-43
2023/09/07 04:27:58;;;;;;;6.53;3.90;;;17.90;99.90;;;;;;4977374;28;20046;-42
2023/09/07 04:30:24;;;;;;;5.60;3.28;;;17.80;99.90;;;;;;4994188;28;20052;-44
2023/09/07 04:32:50;;;;;;;5.85;3.45;;;17.80;99.90;;;;;;4994334;28;20042;-44
2023/09/07 04:35:15;;;;;;;5.93;3.50;;;17.80;99.90;;;;;;4977202;28;20046;-43
2023/09/07 04:37:44;;;;;;;6.13;3.45;;;17.70;99.90;;;;;;5009819;28;20057;-43
2023/09/07 04:40:11;;;;;;;6.50;3.50;;;17.70;99.90;;;;;;4994224;28;20045;-43
2023/09/07 04:42:38;;;;;;;5.70;3.55;;;17.70;99.90;;;;;;4994278;28;20053;-42
2023/09/07 04:45:05;;;;;;;7.30;3.67;;;17.70;99.90;;;;;;4994192;28;20499;-42
2023/09/07 04:47:31;;;;;;;7.40;3.90;;;17.70;99.90;;;;;;4993895;28;20064;-43
2023/09/07 04:49:56;;;;;;;5.97;3.38;;;17.70;99.90;;;;;;4996153;28;20133;-43
2023/09/07 04:52:22;;;;;;;5.97;3.47;;;17.60;99.90;;;;;;5000691;28;20410;-43
2023/09/07 04:54:48;;;;;;;6.65;3.35;;;17.60;99.90;;;;;;5015817;28;20108;-43
2023/09/07 04:57:17;;;;;;;5.25;3.38;;;17.60;99.90;;;;;;5000736;28;20383;-42
2023/09/07 04:59:43;;;;;;;6.60;3.80;;;17.50;99.90;;;;;;5000397;28;20061;-43
2023/09/07 05:02:09;;;;;;;6.70;4.20;;;17.50;99.90;;;;;;5000620;28;20042;-42
2023/09/07 05:04:34;;;;;;;6.70;3.72;;;17.40;99.90;;;;;;5000692;28;20050;-43
2023/09/07 05:07:00;;;;;;;5.95;3.45;;;17.40;99.90;;;;;;5000423;28;20078;-44
2023/09/07 05:09:29;;;;;;;5.88;3.70;;;17.30;99.90;;;;;;5000359;28;20514;-43
2023/09/07 05:11:54;;;;;;;5.90;3.63;;;17.30;99.90;;;;;;5000521;28;20050;-45
2023/09/07 05:14:20;;;;;;;6.68;3.75;;;17.30;99.90;;;;;;5000387;28;20168;-42
2023/09/07 05:16:46;;;;;;;6.70;4.18;;;17.30;99.90;;;;;;5000534;28;20136;-43
2023/09/07 05:19:11;;;;;;;6.22;3.78;;;17.30;99.90;;;;;;5000575;28;20042;-43
2023/09/07 05:21:37;;;;;;;6.57;4.07;;;17.30;99.90;;;;;;5000372;28;20046;-43
2023/09/07 05:24:03;;;;;;;6.35;4.00;;;17.20;99.90;;;;;;5000348;28;20043;-43
2023/09/07 05:26:29;;;;;;;;;;;17.20;99.90;;;;;;5000688;28;20050;-43
2023/09/07 05:28:55;;;;;;;7.63;4.30;;;17.20;99.90;;;;;;5000259;28;20396;-43
2023/09/07 05:31:20;;;;;;;6.70;4.05;;;17.20;99.90;;;;;;5000664;28;20124;-43
2023/09/07 05:33:46;;;;;;;7.32;4.15;;;17.20;99.90;;;;;;4982954;28;20519;-43
2023/09/07 05:36:11;;;;;;;6.50;4.00;;;17.20;99.90;;;;;;5000363;28;20372;-43
2023/09/07 05:38:37;;;;;;;6.40;3.67;;;17.20;99.90;;;;;;5000240;28;20398;-43
2023/09/07 05:41:03;;;;;;;6.50;4.03;;;17.10;99.90;;;;;;5000171;28;20093;-43
2023/09/07 05:43:29;;;;;;;7.05;3.90;;;17.20;99.90;;;;;;5000105;28;20133;-42
2023/09/07 05:45:54;;;;;;;6.30;4.05;;;17.20;99.90;;;;;;5000596;28;20046;-43
2023/09/07 05:48:20;;;;;;;7.07;4.32;;;17.20;99.90;;;;;;4997935;28;20065;-43
2023/09/07 05:50:46;;;;;;;7.28;4.03;;;17.20;99.90;;;;;;5000099;28;20054;-43
2023/09/07 05:53:11;;;;;;;7.32;4.47;;;17.20;99.90;;;;;;5000352;28;20100;-43
2023/09/07 05:55:37;;;;;;;7.40;4.20;;;17.30;99.90;;;;;;4999948;28;20050;-43
2023/09/07 05:58:08;;;;;;;7.70;4.43;;;17.30;99.90;;;;;;4982650;28;20062;-43
2023/09/07 06:00:38;;;;;;;6.88;4.22;;;17.40;99.90;;;;;;5000131;28;20578;-43
2023/09/07 06:03:05;;;;;;;6.63;4.22;;;17.40;99.90;;;;;;4996133;28;20049;-43
2023/09/07 06:05:31;;;;;;;7.63;4.10;;;17.50;99.90;;;;;;4996898;28;20042;-43
2023/09/07 06:07:57;;;;;;;9.38;4.72;;;17.60;99.90;;;;;;4996950;28;20120;-43
2023/09/07 06:10:23;;;;;;;7.00;4.45;;;17.60;99.90;;;;;;4996855;28;20054;-43
2023/09/07 06:12:49;;;;;;;6.60;3.90;;;17.70;99.90;;;;;;4979566;28;20050;-44
2023/09/07 06:15:15;;;;;;;8.00;4.28;;;17.80;99.90;;;;;;4996769;28;20046;-43
2023/09/07 06:17:40;;;;;;;7.78;4.22;;;17.90;99.90;;;;;;4996845;28;20038;-43
2023/09/07 06:20:07;;;;;;;7.13;4.40;;;18.00;99.90;;;;;;4996758;28;20546;-43
2023/09/07 06:22:32;;;;;;;7.45;4.45;;;18.10;99.90;;;;;;4996662;28;20058;-43
2023/09/07 06:24:58;;;;;;;7.72;4.70;;;18.20;99.90;;;;;;4996639;28;20061;-43
2023/09/07 06:27:24;;;;;;;7.05;4.45;;;18.20;99.90;;;;;;4996312;28;20042;-43
2023/09/07 06:29:50;;;;;;;7.57;4.43;;;18.30;99.90;;;;;;4996842;28;20100;-44
2023/09/07 06:32:16;;;;;;;6.97;4.15;;;18.40;99.90;;;;;;4979633;28;20057;-43
2023/09/07 06:34:42;;;;;;;7.75;4.82;;;18.50;99.90;;;;;;4996431;28;20407;-43
2023/09/07 06:37:08;;;;;;;7.65;4.47;;;18.60;99.90;;;;;;4996355;28;20050;-43
2023/09/07 06:39:34;;;;;;;7.65;4.30;;;18.70;99.90;;;;;;5011461;28;20115;-43
2023/09/07 06:41:59;;;;;;;6.15;3.92;;;18.70;99.90;;;;;;4996193;28;20471;-43
2023/09/07 06:44:25;;;;;;;7.50;4.72;;;18.90;99.90;;;;;;4996344;28;20042;-43
2023/09/07 06:46:51;;;;;;;9.05;4.40;;;19.00;99.90;;;;;;4976806;28;20380;-43
2023/09/07 06:49:16;;;;;;;8.85;4.85;;;19.10;99.90;;;;;;4996045;28;20112;-45
2023/09/07 06:51:42;;;;;;;9.27;4.85;;;19.40;99.90;;;;;;4996280;28;20432;-42
2023/09/07 06:54:08;;;;;;;6.35;4.00;;;19.90;99.90;;;;;;4978918;28;20054;-43
2023/09/07 06:56:34;;;;;;;7.28;4.00;;;20.00;99.90;;;;;;4995932;28;20053;-43
2023/09/07 06:59:00;;;;;;;8.30;4.53;;;20.00;99.90;;;;;;4978832;28;20057;-43
2023/09/07 07:01:26;;;;;;;6.80;4.28;;;20.00;99.90;;;;;;4996060;28;20049;-43
2023/09/07 07:03:52;;;;;;;8.00;4.68;;;20.00;99.90;;;;;;4995876;28;20054;-43
2023/09/07 07:06:19;;;;;;;7.65;4.43;;;20.00;99.90;;;;;;4995861;28;20092;-42
2023/09/07 07:08:44;;;;;;;;;;;20.00;99.90;;;;;;4996070;28;20513;-43
2023/09/07 07:11:10;;;;;;;6.28;3.95;;;20.10;99.90;;;;;;5010745;28;19921;-43
2023/09/07 07:13:36;;;;;;;6.85;4.07;;;20.20;99.90;;;;;;4978632;28;20113;-43
2023/09/07 07:16:03;;;;;;;;;;;20.40;99.90;;;;;;4996113;28;20057;-43
2023/09/07 07:18:29;;;;;;;8.43;4.20;;;20.60;99.90;;;;;;4995676;28;19921;-43
2023/09/07 07:20:55;;;;;;;7.85;4.25;;;20.70;99.90;;;;;;4995620;28;20517;-43
2023/09/07 07:23:20;;;;;;;6.95;4.43;;;20.70;99.90;;;;;;4995546;28;20076;-43
2023/09/07 07:25:46;;;;;;;7.75;4.53;;;20.60;99.90;;;;;;4995125;28;20046;-43
2023/09/07 07:28:12;;;;;;;7.13;4.05;;;20.70;99.90;;;;;;4995491;28;20064;-44
2023/09/07 07:30:40;;;;;;;7.20;4.25;;;20.60;99.90;;;;;;4995437;28;20046;-43
2023/09/07 07:33:06;;;;;;;7.05;4.35;;;20.60;99.90;;;;;;4995255;28;20046;-43
2023/09/07 07:35:36;;;;;;;7.63;4.45;;;20.70;99.90;;;;;;4995154;28;20530;-43
2023/09/07 07:38:03;;;;;;;7.18;4.20;;;20.70;99.90;;;;;;4995096;28;20156;-44
2023/09/07 07:40:32;;;;;;;6.78;4.20;;;20.70;99.90;;;;;;4994948;28;20054;-43
2023/09/07 07:42:58;;;;;;;5.93;3.80;;;20.80;99.90;;;;;;4995192;28;20046;-43
2023/09/07 07:45:24;;;;;;;6.43;4.15;;;20.80;99.90;;;;;;4995165;28;20050;-43
2023/09/07 07:47:50;;;;;;;8.07;4.60;;;20.90;99.90;;;;;;5006629;28;20145;-43
2023/09/07 07:50:17;;;;;;;6.50;4.00;;;20.90;99.90;;;;;;4975565;28;20054;-43
2023/09/07 07:52:42;;;;;;;6.60;3.92;;;21.00;99.90;;;;;;4975426;28;20047;-44
2023/09/07 07:55:09;;;;;;;6.75;4.30;;;21.00;99.90;;;;;;4975904;28;20070;-43
2023/09/07 07:57:35;;;;;;;6.50;4.05;;;21.00;99.90;;;;;;5007117;28;20480;-42
2023/09/07 08:00:02;;;;;;;6.07;3.58;;;21.10;99.90;;;;;;4975479;28;20130;-43
2023/09/07 08:02:28;;;;;;;7.75;3.88;;;21.20;99.90;;;;;;4975573;28;20055;-43
2023/09/07 08:04:54;;;;;;;6.68;4.35;;;21.30;99.90;;;;;;4974474;28;20399;-44
2023/09/07 08:07:20;;;;;;;8.68;4.28;;;21.30;99.90;;;;;;4973811;28;20043;-43
2023/09/07 08:09:45;;;;;;;6.53;4.47;;;21.40;99.90;;;;;;4975322;28;20057;-44
2023/09/07 08:12:11;;;;;;;6.60;4.10;;;21.40;99.90;;;;;;4975294;28;20053;-43
2023/09/07 08:14:37;;;;;;;7.20;4.25;;;21.50;99.90;;;;;;4975146;28;20047;-43
2023/09/07 08:17:03;;;;;;;7.55;3.67;;;21.60;99.90;;;;;;4975312;28;20047;-44
2023/09/07 08:19:29;;;;;;;5.78;3.45;;;21.60;99.90;;;;;;4975069;28;20487;-43
2023/09/07 08:21:55;;;;;;;6.57;3.97;;;21.60;99.90;;;;;;4974141;28;20487;-44
2023/09/07 08:24:20;;;;;;;8.25;4.03;;;21.70;99.90;;;;;;4975034;28;20105;-43
2023/09/07 08:26:51;;;;;;;6.55;3.83;;;21.80;99.90;;;;;;4973555;28;20480;-44
2023/09/07 08:29:17;;;;;;;7.53;4.32;;;21.80;99.90;;;;;;4974538;28;20055;-43
2023/09/07 08:31:45;;;;;;;;;;;21.90;99.90;;;;;;4975316;28;20590;-43
2023/09/07 08:34:14;;;;;;;7.10;4.20;;;21.90;99.90;;;;;;4975105;28;19973;-43
2023/09/07 08:36:40;;;;;;;6.32;3.85;;;22.00;99.90;;;;;;4974875;28;20097;-43
2023/09/07 08:39:09;;;;;;;8.52;3.67;;;22.10;99.90;;;;;;4974930;28;20491;-42
2023/09/07 08:41:43;;;;;;;5.90;3.70;;;22.10;99.90;;;;;;4974884;28;20051;-43
2023/09/07 08:44:19;;;;;;;9.00;4.03;;;22.10;99.90;;;;;;4974886;28;20130;-43
2023/09/07 08:46:45;;;;;;;6.95;4.13;;;22.20;99.90;;;;;;4974675;28;20042;-43
2023/09/07 08:49:11;;;;;;;;;;;22.20;99.90;;;;;;4974045;28;20113;-44
2023/09/07 08:51:37;;;;;;;5.75;3.20;;;22.30;99.90;;;;;;5006529;28;19922;-43
2023/09/07 08:54:04;;;;;;;8.25;3.15;;;22.40;99.90;;;;;;4974796;28;20051;-43
2023/09/07 08:56:30;;;;;;;4.53;2.78;;;22.40;99.90;;;;;;4974780;28;20051;-43
2023/09/07 08:58:56;;;;;;;6.07;2.90;;;22.50;99.90;;;;;;4974598;28;20403;-44
2023/09/07 09:01:21;;;;;;;;;;;22.60;99.90;;;;;;4974026;28;20480;-43
2023/09/07 09:03:51;;;;;;;5.75;2.97;;;22.60;99.90;;;;;;4974381;28;19922;-43
2023/09/07 09:06:18;;;;;;;5.88;2.90;;;22.60;99.90;;;;;;4974486;28;20062;-43
2023/09/07 09:08:47;;;;;;;5.40;3.03;;;22.70;99.90;;;;;;4974047;28;20170;-43
2023/09/07 09:11:12;;;;;;;5.90;2.92;;;22.70;99.90;;;;;;4974724;28;20152;-43
2023/09/07 09:13:40;;;;;;;5.18;3.10;;;22.80;99.90;;;;;;4974623;28;20098;-43
2023/09/07 09:16:05;;;;;;;4.82;2.90;;;22.80;99.90;;;;;;4974382;28;20043;-43
2023/09/07 09:18:31;;;;;;;6.03;2.78;;;22.90;99.90;;;;;;4974301;28;20053;-43
2023/09/07 09:20:58;;;;;;;6.03;3.08;;;23.00;99.90;;;;;;4974529;28;20045;-43
2023/09/07 09:23:30;;;;;;;5.32;3.08;;;23.00;99.90;;;;;;4974657;28;20057;-43
2023/09/07 09:25:56;;;;;;;5.53;3.08;;;23.00;99.90;;;;;;4974678;28;20125;-43
2023/09/07 09:28:22;;;;;;;5.55;2.47;;;23.10;99.90;;;;;;4974511;28;20530;-44
2023/09/07 09:30:49;;;;;;;5.10;2.75;;;23.10;99.90;;;;;;4974275;28;20055;-43
2023/09/07 09:33:14;;;;;;;4.65;2.45;;;23.10;99.90;;;;;;4974431;28;20054;-43
2023/09/07 09:35:42;;;;;;;5.60;3.00;;;23.20;99.90;;;;;;4974288;28;20109;-43
2023/09/07 09:38:10;;;;;;;5.18;2.72;;;23.20;99.90;;;;;;4976773;28;20050;-43
2023/09/07 09:40:35;;;;;;;4.88;2.65;;;23.30;99.90;;;;;;4977834;28;20043;-43
2023/09/07 09:43:05;;;;;;;5.53;2.78;;;23.40;99.90;;;;;;4977813;28;20130;-43
2023/09/07 09:45:32;;;;;;;6.20;3.03;;;23.40;99.90;;;;;;4977623;28;20046;-44
2023/09/07 09:48:01;;;;;;;5.25;3.00;;;23.50;99.90;;;;;;4984535;28;20058;-43
2023/09/07 09:50:28;;;;;;;7.07;2.95;;;23.60;99.90;;;;;;4997316;28;20058;-44
2023/09/07 09:52:54;;;;;;;5.38;2.67;;;23.60;99.90;;;;;;4997198;28;20069;-43
2023/09/07 09:55:21;;;;;;;6.35;3.10;;;23.70;99.90;;;;;;4997169;28;20046;-43
2023/09/07 09:57:47;;;;;;;6.82;2.83;;;23.80;99.90;;;;;;4997051;28;20152;-43
2023/09/07 10:00:25;;;;;;;4.70;2.80;;;23.80;99.90;;;;;;4997613;28;20050;-43
2023/09/07 10:03:35;;;;;;;6.05;2.92;;;23.90;99.90;;;;;;4997457;28;20046;-43
2023/09/07 10:06:28;;;;;;;6.10;2.97;;;24.00;99.90;;;;;;4983523;28;20108;-43
2023/09/07 10:09:06;;;;;;;5.65;3.00;;;24.10;99.90;;;;;;4997027;28;20129;-43
2023/09/07 10:11:39;;;;;;;6.47;3.38;;;24.20;99.90;;;;;;4997026;28;20148;-43
2023/09/07 10:14:06;;;;;;;6.10;3.60;;;24.20;99.90;;;;;;4996852;28;20129;-43
2023/09/07 10:16:55;;;;;;;5.70;3.00;;;24.30;99.90;;;;;;4996754;28;20046;-43
2023/09/07 10:19:24;;;;;;;5.50;2.65;;;24.40;99.90;;;;;;4996827;28;20050;-43
2023/09/07 10:21:52;;;;;;;6.22;3.17;;;24.50;99.90;;;;;;4996663;28;20051;-43
2023/09/07 10:24:25;;;;;;;4.50;2.75;;;24.60;99.90;;;;;;4979652;28;20066;-44
2023/09/07 10:27:02;;;;;;;6.47;3.35;;;24.70;99.90;;;;;;4996375;28;20065;-43
2023/09/07 10:29:28;;;;;;;7.63;3.33;;;24.80;99.90;;;;;;4996395;28;20400;-43
2023/09/07 10:31:54;;;;;;;5.18;2.70;;;24.80;99.90;;;;;;4996869;28;20061;-43
2023/09/07 10:34:22;;;;;;;;;;;24.90;99.90;;;;;;4996896;28;20430;-43
2023/09/07 10:36:51;;;;;;;6.20;2.50;;;25.00;99.90;;;;;;4996781;28;19976;-43
2023/09/07 10:39:16;;;;;;;5.82;2.67;;;25.20;99.90;;;;;;4996292;28;20113;-43
2023/09/07 10:41:42;;;;;;;;;;;25.30;99.90;;;;;;4996777;28;20418;-43
2023/09/07 10:44:10;;;;;;;5.28;2.53;;;25.40;99.90;;;;;;4979392;28;19921;-43
2023/09/07 10:46:38;;;;;;;5.78;3.05;;;25.50;99.90;;;;;;4996204;28;20043;-43
2023/09/07 10:49:06;;;;;;;6.25;2.45;;;25.70;99.90;;;;;;4974973;28;20142;-44
2023/09/07 10:51:32;;;;;;;4.93;2.95;;;25.80;99.90;;;;;;4975535;28;20480;-43
2023/09/07 10:53:57;;;;;;;;;;;25.80;99.90;;;;;;4977102;28;20064;-43
2023/09/07 10:56:26;;;;;;;3.88;2.20;;;26.00;99.90;;;;;;4976598;28;19926;-43
2023/09/07 10:58:54;;;;;;;3.97;2.05;;;26.10;99.90;;;;;;4976656;28;20148;-43
2023/09/07 11:01:20;;;;;;;5.22;2.53;;;26.20;99.90;;;;;;5008369;28;20050;-43
2023/09/07 11:03:46;;;;;;;5.03;2.30;;;26.30;99.90;;;;;;4976749;28;20093;-43
2023/09/07 11:06:19;;;;;;;5.25;2.53;;;26.50;99.90;;;;;;4976343;28;20043;-43
2023/09/07 11:08:48;;;;;;;5.82;2.63;;;26.60;99.90;;;;;;4976146;28;20043;-43
2023/09/07 11:11:14;;;;;;;4.88;2.35;;;26.70;99.90;;;;;;4976332;28;20077;-43
2023/09/07 11:13:40;;;;;;;6.88;2.30;;;26.80;99.90;;;;;;4976279;28;20129;-43
2023/09/07 11:16:08;;;;;;;4.72;1.92;;;26.90;99.90;;;;;;4976596;28;20042;-43
2023/09/07 11:18:37;;;;;;;4.65;2.45;;;26.90;99.90;;;;;;4976115;28;20496;-43
2023/09/07 11:21:04;;;;;;;4.13;1.98;;;27.10;99.90;;;;;;4976086;28;20499;-43
2023/09/07 11:23:37;;;;;;;5.38;2.20;;;27.20;99.90;;;;;;4976037;28;20051;-43
2023/09/07 11:26:05;;;;;;;4.78;1.88;;;27.20;99.90;;;;;;4976273;28;20086;-43
2023/09/07 11:28:31;;;;;;;6.03;2.20;;;27.30;99.90;;;;;;4976127;28;20112;-42
2023/09/07 11:30:59;;;;;;;3.88;2.13;;;27.30;99.90;;;;;;4975895;28;20050;-43
2023/09/07 11:33:25;;;;;;;3.70;1.95;;;27.40;99.90;;;;;;4975873;28;20047;-43
2023/09/07 11:35:54;;;;;;;4.75;2.20;;;27.50;99.90;;;;;;4975883;28;20051;-43
2023/09/07 11:38:19;;;;;;;4.82;2.60;;;27.60;99.90;;;;;;4974509;28;20050;-42
2023/09/07 11:40:45;;;;;;;4.80;2.22;;;27.70;99.90;;;;;;4975846;28;20058;-42
2023/09/07 11:43:12;;;;;;;4.95;2.10;;;27.80;99.90;;;;;;4975789;28;20043;-44
2023/09/07 11:45:42;;;;;;;5.10;2.50;;;27.80;99.90;;;;;;4974504;28;20093;-44
2023/09/07 11:48:11;;;;;;;4.50;2.22;;;27.90;99.90;;;;;;4984092;28;20137;-43
2023/09/07 11:50:38;;;;;;;4.65;2.30;;;28.00;99.90;;;;;;4994918;28;20133;-46
2023/09/07 11:53:05;;;;;;;5.10;2.50;;;28.00;99.90;;;;;;5010198;28;20061;-44
2023/09/07 11:55:31;;;;;;;4.13;2.15;;;28.00;99.90;;;;;;4995007;28;20046;-44
2023/09/07 11:57:57;;;;;;;4.95;2.30;;;28.10;99.90;;;;;;4977815;28;20053;-44
2023/09/07 12:00:23;;;;;;;4.10;2.08;;;28.10;99.90;;;;;;4977001;28;20058;-44
2023/09/07 12:02:49;;;;;;;4.40;2.13;;;28.20;99.90;;;;;;4994709;28;20054;-44
2023/09/07 12:05:15;;;;;;;5.45;2.58;;;28.20;99.90;;;;;;4977507;28;20100;-44
2023/09/07 12:07:44;;;;;;;5.88;2.30;;;28.20;99.90;;;;;;4994526;28;20500;-44
2023/09/07 12:10:11;;;;;;;4.43;2.28;;;28.30;99.90;;;;;;4994764;28;20546;-45
2023/09/07 12:12:41;;;;;;;5.05;2.63;;;28.40;99.90;;;;;;4994791;28;20068;-43
2023/09/07 12:15:07;;;;;;;5.53;2.17;;;28.40;99.90;;;;;;4994669;28;20046;-43
2023/09/07 12:17:34;;;;;;;4.72;2.92;;;28.50;99.90;;;;;;4994577;28;20104;-44
2023/09/07 12:20:00;;;;;;;5.00;2.30;;;28.40;99.90;;;;;;5009671;28;20125;-44
2023/09/07 12:22:26;;;;;;;4.13;1.95;;;28.50;99.90;;;;;;4977191;28;20059;-44
2023/09/07 12:24:52;;;;;;;4.35;2.25;;;28.50;99.90;;;;;;4994623;28;20054;-43
2023/09/07 12:27:18;;;;;;;4.57;2.60;;;28.60;99.90;;;;;;4994420;28;20042;-47
2023/09/07 12:29:44;;;;;;;3.85;2.40;;;28.60;99.90;;;;;;4994313;28;20038;-43
2023/09/07 12:32:11;;;;;;;3.78;2.00;;;28.60;99.90;;;;;;4994711;28;20050;-43
2023/09/07 12:34:37;;;;;;;5.57;2.55;;;28.70;99.90;;;;;;4994126;28;20107;-43
2023/09/07 12:37:05;;;;;;;5.40;2.35;;;28.70;99.80;;;;;;4994340;28;20125;-43
2023/09/07 12:39:32;;;;;;;4.15;2.28;;;28.70;99.50;;;;;;5009473;28;20193;-44
2023/09/07 12:41:57;;;;;;;4.32;2.30;;;28.70;99.10;;;;;;4994342;28;20054;-44
2023/09/07 12:44:23;;;;;;;6.20;2.58;;;28.70;98.40;;;;;;4994158;28;20054;-43
2023/09/07 12:46:49;;;;;;;5.45;2.38;;;28.80;98.40;;;;;;4994093;28;20125;-43
2023/09/07 12:49:17;;;;;;;5.45;2.60;;;28.80;98.30;;;;;;4993813;28;20058;-45